sensor_id;sensor_type;location;lat;lon;timestamp;temperature;humidity
33139;DHT22;19501;50.948;5.316;2023-03-01T00:01:24;1.10;99.90
33139;DHT22;19501;50.948;5.316;2023-03-01T00:03:51;1.10;99.90
33139;DHT22;19501;50.948;5.316;2023-03-01T00:06:17;1.10;99.90
33139;DHT22;19501;50.948;5.316;2023-03-01T00:08:43;1.00;99.90
33139;DHT22;19501;50.948;5.316;2023-03-01T00:11:18;0.80;99.90
33139;DHT22;19501;50.948;5.316;2023-03-01T00:13:45;0.70;99.90
33139;DHT22;19501;50.948;5.316;2023-03-01T00:16:22;0.60;99.90
33139;DHT22;19501;50.948;5.316;2023-03-01T00:18:48;0.50;99.90
33139;DHT22;19501;50.948;5.316;2023-03-01T00:21:14;0.30;99.90
33139;DHT22;19501;50.948;5.316;2023-03-01T00:23:41;0.30;99.90
33139;DHT22;19501;50.948;5.316;2023-03-01T00:26:09;0.20;99.90
33139;DHT22;19501;50.948;5.316;2023-03-01T00:28:38;0.20;99.90
33139;DHT22;19501;50.948;5.316;2023-03-01T00:31:09;0.20;99.90
33139;DHT22;19501;50.948;5.316;2023-03-01T00:33:35;0.20;99.90
33139;DHT22;19501;50.948;5.316;2023-03-01T00:36:01;0.10;99.90
33139;DHT22;19501;50.948;5.316;2023-03-01T00:38:27;0.10;99.90
33139;DHT22;19501;50.948;5.316;2023-03-01T00:40:55;0.00;99.90
33139;DHT22;19501;50.948;5.316;2023-03-01T00:43:21;0.00;99.90
33139;DHT22;19501;50.948;5.316;2023-03-01T00:45:47;0.10;99.90
33139;DHT22;19501;50.948;5.316;2023-03-01T00:48:12;0.20;99.90
33139;DHT22;19501;50.948;5.316;2023-03-01T00:50:38;0.30;99.90
33139;DHT22;19501;50.948;5.316;2023-03-01T00:53:04;0.50;99.90
33139;DHT22;19501;50.948;5.316;2023-03-01T00:55:30;0.60;99.90
33139;DHT22;19501;50.948;5.316;2023-03-01T00:57:56;0.50;99.90
33139;DHT22;19501;50.948;5.316;2023-03-01T01:00:21;0.60;99.90
33139;DHT22;19501;50.948;5.316;2023-03-01T01:02:47;0.60;99.90
33139;DHT22;19501;50.948;5.316;2023-03-01T01:05:14;0.70;99.90
33139;DHT22;19501;50.948;5.316;2023-03-01T01:07:39;0.70;99.90
33139;DHT22;19501;50.948;5.316;2023-03-01T01:10:06;0.70;99.90
33139;DHT22;19501;50.948;5.316;2023-03-01T01:12:32;0.70;99.90
33139;DHT22;19501;50.948;5.316;2023-03-01T01:14:58;0.70;99.90
33139;DHT22;19501;50.948;5.316;2023-03-01T01:17:24;0.60;99.90
33139;DHT22;19501;50.948;5.316;2023-03-01T01:19:52;0.50;99.90
33139;DHT22;19501;50.948;5.316;2023-03-01T01:22:20;0.50;99.90
33139;DHT22;19501;50.948;5.316;2023-03-01T01:24:46;0.60;99.90
33139;DHT22;19501;50.948;5.316;2023-03-01T01:27:12;0.70;99.90
33139;DHT22;19501;50.948;5.316;2023-03-01T01:29:37;0.50;99.90
33139;DHT22;19501;50.948;5.316;2023-03-01T01:32:03;0.40;99.90
33139;DHT22;19501;50.948;5.316;2023-03-01T01:34:31;0.40;99.90
33139;DHT22;19501;50.948;5.316;2023-03-01T01:36:57;0.30;99.90
33139;DHT22;19501;50.948;5.316;2023-03-01T01:39:22;0.30;99.90
33139;DHT22;19501;50.948;5.316;2023-03-01T01:41:48;0.10;99.90
33139;DHT22;19501;50.948;5.316;2023-03-01T01:44:15;0.00;99.90
33139;DHT22;19501;50.948;5.316;2023-03-01T01:46:48;0.00;99.90
33139;DHT22;19501;50.948;5.316;2023-03-01T01:49:24;-0.10;99.90
33139;DHT22;19501;50.948;5.316;2023-03-01T01:51:56;-0.10;99.90
33139;DHT22;19501;50.948;5.316;2023-03-01T01:57:05;-0.30;99.90
33139;DHT22;19501;50.948;5.316;2023-03-01T01:59:33;-0.50;99.90
33139;DHT22;19501;50.948;5.316;2023-03-01T02:02:01;-0.60;99.90
33139;DHT22;19501;50.948;5.316;2023-03-01T02:04:29;-0.70;99.90
33139;DHT22;19501;50.948;5.316;2023-03-01T02:07:02;-0.90;99.90
33139;DHT22;19501;50.948;5.316;2023-03-01T02:09:30;-0.90;99.90
33139;DHT22;19501;50.948;5.316;2023-03-01T02:11:57;-1.00;99.90
33139;DHT22;19501;50.948;5.316;2023-03-01T02:14:26;-1.20;99.90
33139;DHT22;19501;50.948;5.316;2023-03-01T02:16:54;-1.20;99.90
33139;DHT22;19501;50.948;5.316;2023-03-01T02:22:31;-1.10;99.90
33139;DHT22;19501;50.948;5.316;2023-03-01T02:27:55;-1.30;99.90
33139;DHT22;19501;50.948;5.316;2023-03-01T02:30:24;-1.30;99.90
33139;DHT22;19501;50.948;5.316;2023-03-01T02:32:52;-1.30;99.90
33139;DHT22;19501;50.948;5.316;2023-03-01T02:35:20;-1.30;99.90
33139;DHT22;19501;50.948;5.316;2023-03-01T02:37:46;-1.30;99.90
33139;DHT22;19501;50.948;5.316;2023-03-01T02:40:17;-1.20;99.90
33139;DHT22;19501;50.948;5.316;2023-03-01T02:42:51;-1.40;99.90
33139;DHT22;19501;50.948;5.316;2023-03-01T02:45:17;-1.30;99.90
33139;DHT22;19501;50.948;5.316;2023-03-01T02:47:43;-1.30;99.90
33139;DHT22;19501;50.948;5.316;2023-03-01T02:50:25;-1.30;99.90
33139;DHT22;19501;50.948;5.316;2023-03-01T02:55:32;-1.40;99.90
33139;DHT22;19501;50.948;5.316;2023-03-01T02:58:02;-1.40;99.90
33139;DHT22;19501;50.948;5.316;2023-03-01T03:00:38;-1.40;99.90
33139;DHT22;19501;50.948;5.316;2023-03-01T03:03:13;-1.40;99.90
33139;DHT22;19501;50.948;5.316;2023-03-01T03:05:39;-1.50;99.90
33139;DHT22;19501;50.948;5.316;2023-03-01T03:08:05;-1.50;99.90
33139;DHT22;19501;50.948;5.316;2023-03-01T03:10:36;-1.60;99.90
33139;DHT22;19501;50.948;5.316;2023-03-01T03:13:08;-1.70;99.90
33139;DHT22;19501;50.948;5.316;2023-03-01T03:15:34;-1.70;99.90
33139;DHT22;19501;50.948;5.316;2023-03-01T03:18:03;-1.80;99.90
33139;DHT22;19501;50.948;5.316;2023-03-01T03:20:30;-1.80;99.90
33139;DHT22;19501;50.948;5.316;2023-03-01T03:22:56;-1.70;99.90
33139;DHT22;19501;50.948;5.316;2023-03-01T03:25:24;-1.70;99.90
33139;DHT22;19501;50.948;5.316;2023-03-01T03:27:51;-1.60;99.90
33139;DHT22;19501;50.948;5.316;2023-03-01T03:30:23;-1.50;99.90
33139;DHT22;19501;50.948;5.316;2023-03-01T03:32:49;-1.40;99.90
33139;DHT22;19501;50.948;5.316;2023-03-01T03:37:52;-1.00;99.90
33139;DHT22;19501;50.948;5.316;2023-03-01T03:42:59;-0.90;99.90
33139;DHT22;19501;50.948;5.316;2023-03-01T03:45:25;-0.70;99.90
33139;DHT22;19501;50.948;5.316;2023-03-01T03:47:51;-0.90;99.90
33139;DHT22;19501;50.948;5.316;2023-03-01T03:50:17;-1.00;99.90
33139;DHT22;19501;50.948;5.316;2023-03-01T03:52:43;-1.00;99.90
33139;DHT22;19501;50.948;5.316;2023-03-01T03:55:11;-0.90;99.90
33139;DHT22;19501;50.948;5.316;2023-03-01T03:57:38;-0.90;99.90
33139;DHT22;19501;50.948;5.316;2023-03-01T04:00:05;-0.80;99.90
33139;DHT22;19501;50.948;5.316;2023-03-01T04:02:31;-0.70;99.90
33139;DHT22;19501;50.948;5.316;2023-03-01T04:04:57;-0.90;99.90
33139;DHT22;19501;50.948;5.316;2023-03-01T04:07:22;-0.90;99.90
33139;DHT22;19501;50.948;5.316;2023-03-01T04:09:48;-1.00;99.90
33139;DHT22;19501;50.948;5.316;2023-03-01T04:12:13;-1.00;99.90
33139;DHT22;19501;50.948;5.316;2023-03-01T04:14:39;-0.90;99.90
33139;DHT22;19501;50.948;5.316;2023-03-01T04:17:05;-1.10;99.90
33139;DHT22;19501;50.948;5.316;2023-03-01T04:19:34;-1.10;99.90
33139;DHT22;19501;50.948;5.316;2023-03-01T04:22:05;-1.00;99.90
33139;DHT22;19501;50.948;5.316;2023-03-01T04:24:37;-1.00;99.90
33139;DHT22;19501;50.948;5.316;2023-03-01T04:27:03;-0.90;99.90
33139;DHT22;19501;50.948;5.316;2023-03-01T04:29:29;-0.90;99.90
33139;DHT22;19501;50.948;5.316;2023-03-01T04:31:54;-0.80;99.90
33139;DHT22;19501;50.948;5.316;2023-03-01T04:34:20;-0.70;99.90
33139;DHT22;19501;50.948;5.316;2023-03-01T04:36:46;-0.70;99.90
33139;DHT22;19501;50.948;5.316;2023-03-01T04:39:11;-0.80;99.90
33139;DHT22;19501;50.948;5.316;2023-03-01T04:41:38;-0.70;99.90
33139;DHT22;19501;50.948;5.316;2023-03-01T04:44:05;-0.80;99.90
33139;DHT22;19501;50.948;5.316;2023-03-01T04:46:31;-0.80;99.90
33139;DHT22;19501;50.948;5.316;2023-03-01T04:48:56;-1.00;99.90
33139;DHT22;19501;50.948;5.316;2023-03-01T04:51:22;-0.90;99.90
33139;DHT22;19501;50.948;5.316;2023-03-01T04:53:49;-0.80;99.90
33139;DHT22;19501;50.948;5.316;2023-03-01T04:56:17;-0.80;99.90
33139;DHT22;19501;50.948;5.316;2023-03-01T04:58:44;-0.80;99.90
33139;DHT22;19501;50.948;5.316;2023-03-01T05:01:18;-0.80;99.90
33139;DHT22;19501;50.948;5.316;2023-03-01T05:03:49;-0.80;99.90
33139;DHT22;19501;50.948;5.316;2023-03-01T05:06:19;-0.70;99.90
33139;DHT22;19501;50.948;5.316;2023-03-01T05:08:45;-0.70;99.90
33139;DHT22;19501;50.948;5.316;2023-03-01T05:11:11;-0.80;99.90
33139;DHT22;19501;50.948;5.316;2023-03-01T05:13:38;-0.90;99.90
33139;DHT22;19501;50.948;5.316;2023-03-01T05:16:05;-0.80;99.90
33139;DHT22;19501;50.948;5.316;2023-03-01T05:18:33;-0.80;99.90
33139;DHT22;19501;50.948;5.316;2023-03-01T05:21:05;-0.90;99.90
33139;DHT22;19501;50.948;5.316;2023-03-01T05:23:32;-1.00;99.90
33139;DHT22;19501;50.948;5.316;2023-03-01T05:25:59;-1.00;99.90
33139;DHT22;19501;50.948;5.316;2023-03-01T05:28:25;-1.00;99.90
33139;DHT22;19501;50.948;5.316;2023-03-01T05:30:51;-1.00;99.90
33139;DHT22;19501;50.948;5.316;2023-03-01T05:33:17;-1.00;99.90
33139;DHT22;19501;50.948;5.316;2023-03-01T05:35:44;-1.00;99.90
33139;DHT22;19501;50.948;5.316;2023-03-01T05:38:12;-1.10;99.90
33139;DHT22;19501;50.948;5.316;2023-03-01T05:40:45;-1.00;99.90
33139;DHT22;19501;50.948;5.316;2023-03-01T05:43:12;-1.10;99.90
33139;DHT22;19501;50.948;5.316;2023-03-01T05:45:39;-0.90;99.90
33139;DHT22;19501;50.948;5.316;2023-03-01T05:48:06;-1.00;99.90
33139;DHT22;19501;50.948;5.316;2023-03-01T05:50:38;-1.00;99.90
33139;DHT22;19501;50.948;5.316;2023-03-01T05:53:11;-1.00;99.90
33139;DHT22;19501;50.948;5.316;2023-03-01T05:55:38;-1.10;99.90
33139;DHT22;19501;50.948;5.316;2023-03-01T05:58:07;-1.10;99.90
33139;DHT22;19501;50.948;5.316;2023-03-01T06:00:34;-1.10;99.90
33139;DHT22;19501;50.948;5.316;2023-03-01T06:03:01;-1.20;99.90
33139;DHT22;19501;50.948;5.316;2023-03-01T06:05:27;-1.40;99.90
33139;DHT22;19501;50.948;5.316;2023-03-01T06:07:53;-1.50;99.90
33139;DHT22;19501;50.948;5.316;2023-03-01T06:10:20;-1.60;99.90
33139;DHT22;19501;50.948;5.316;2023-03-01T06:12:47;-1.50;99.90
33139;DHT22;19501;50.948;5.316;2023-03-01T06:15:14;-1.40;99.90
33139;DHT22;19501;50.948;5.316;2023-03-01T06:17:41;-1.60;99.90
33139;DHT22;19501;50.948;5.316;2023-03-01T06:20:10;-1.60;99.90
33139;DHT22;19501;50.948;5.316;2023-03-01T06:22:37;-1.60;99.90
33139;DHT22;19501;50.948;5.316;2023-03-01T06:25:03;-1.50;99.90
33139;DHT22;19501;50.948;5.316;2023-03-01T06:27:29;-1.50;99.90
33139;DHT22;19501;50.948;5.316;2023-03-01T06:29:54;-1.40;99.90
33139;DHT22;19501;50.948;5.316;2023-03-01T06:32:21;-1.40;99.90
33139;DHT22;19501;50.948;5.316;2023-03-01T06:34:46;-1.40;99.90
33139;DHT22;19501;50.948;5.316;2023-03-01T06:37:12;-1.40;99.90
33139;DHT22;19501;50.948;5.316;2023-03-01T06:39:38;-1.40;99.90
33139;DHT22;19501;50.948;5.316;2023-03-01T06:42:04;-1.40;99.90
33139;DHT22;19501;50.948;5.316;2023-03-01T06:44:30;-1.30;99.90
33139;DHT22;19501;50.948;5.316;2023-03-01T06:46:55;-1.30;99.90
33139;DHT22;19501;50.948;5.316;2023-03-01T06:49:21;-1.30;99.90
33139;DHT22;19501;50.948;5.316;2023-03-01T06:51:47;-1.20;99.90
33139;DHT22;19501;50.948;5.316;2023-03-01T06:54:13;-1.20;99.90
33139;DHT22;19501;50.948;5.316;2023-03-01T06:56:39;-1.30;99.90
33139;DHT22;19501;50.948;5.316;2023-03-01T06:59:04;-1.40;99.90
33139;DHT22;19501;50.948;5.316;2023-03-01T07:01:30;-1.50;99.90
33139;DHT22;19501;50.948;5.316;2023-03-01T07:03:56;-1.50;99.90
33139;DHT22;19501;50.948;5.316;2023-03-01T07:06:23;-1.50;99.90
33139;DHT22;19501;50.948;5.316;2023-03-01T07:08:49;-1.40;99.90
33139;DHT22;19501;50.948;5.316;2023-03-01T07:11:15;-1.40;99.90
33139;DHT22;19501;50.948;5.316;2023-03-01T07:13:41;-1.40;99.90
33139;DHT22;19501;50.948;5.316;2023-03-01T07:16:07;-1.40;99.90
33139;DHT22;19501;50.948;5.316;2023-03-01T07:18:32;-1.30;99.90
33139;DHT22;19501;50.948;5.316;2023-03-01T07:21:03;-1.20;99.90
33139;DHT22;19501;50.948;5.316;2023-03-01T07:23:28;-1.20;99.90
33139;DHT22;19501;50.948;5.316;2023-03-01T07:25:55;-1.20;99.90
33139;DHT22;19501;50.948;5.316;2023-03-01T07:28:23;-1.10;99.90
33139;DHT22;19501;50.948;5.316;2023-03-01T07:30:48;-1.10;99.90
33139;DHT22;19501;50.948;5.316;2023-03-01T07:33:14;-0.90;99.90
33139;DHT22;19501;50.948;5.316;2023-03-01T07:35:40;-0.80;99.90
33139;DHT22;19501;50.948;5.316;2023-03-01T07:38:06;-0.80;99.90
33139;DHT22;19501;50.948;5.316;2023-03-01T07:40:34;-0.80;99.90
33139;DHT22;19501;50.948;5.316;2023-03-01T07:43:00;-0.90;99.90
33139;DHT22;19501;50.948;5.316;2023-03-01T07:45:27;-0.80;99.90
33139;DHT22;19501;50.948;5.316;2023-03-01T07:47:53;-0.80;99.90
33139;DHT22;19501;50.948;5.316;2023-03-01T07:50:20;-0.80;99.90
33139;DHT22;19501;50.948;5.316;2023-03-01T07:52:47;-0.70;99.90
33139;DHT22;19501;50.948;5.316;2023-03-01T07:55:12;-0.70;99.90
33139;DHT22;19501;50.948;5.316;2023-03-01T07:57:40;-0.60;99.90
33139;DHT22;19501;50.948;5.316;2023-03-01T08:00:09;-0.50;99.90
33139;DHT22;19501;50.948;5.316;2023-03-01T08:02:36;-0.50;99.90
33139;DHT22;19501;50.948;5.316;2023-03-01T08:05:02;-0.40;99.90
33139;DHT22;19501;50.948;5.316;2023-03-01T08:07:28;-0.40;99.90
33139;DHT22;19501;50.948;5.316;2023-03-01T08:09:54;-0.30;99.90
33139;DHT22;19501;50.948;5.316;2023-03-01T08:12:19;-0.30;99.90
33139;DHT22;19501;50.948;5.316;2023-03-01T08:14:45;-0.20;99.90
33139;DHT22;19501;50.948;5.316;2023-03-01T08:17:13;-0.20;99.90
33139;DHT22;19501;50.948;5.316;2023-03-01T08:19:39;-0.10;99.90
33139;DHT22;19501;50.948;5.316;2023-03-01T08:22:04;0.00;99.90
33139;DHT22;19501;50.948;5.316;2023-03-01T08:24:30;0.10;99.90
33139;DHT22;19501;50.948;5.316;2023-03-01T08:26:56;0.20;99.90
33139;DHT22;19501;50.948;5.316;2023-03-01T08:29:22;0.20;99.90
33139;DHT22;19501;50.948;5.316;2023-03-01T08:31:48;0.30;99.90
33139;DHT22;19501;50.948;5.316;2023-03-01T08:34:16;0.30;99.90
33139;DHT22;19501;50.948;5.316;2023-03-01T08:36:43;0.40;99.90
33139;DHT22;19501;50.948;5.316;2023-03-01T08:39:14;0.50;99.90
33139;DHT22;19501;50.948;5.316;2023-03-01T08:41:41;0.50;99.90
33139;DHT22;19501;50.948;5.316;2023-03-01T08:44:09;0.60;99.90
33139;DHT22;19501;50.948;5.316;2023-03-01T08:46:37;0.60;99.90
33139;DHT22;19501;50.948;5.316;2023-03-01T08:49:04;0.80;99.90
33139;DHT22;19501;50.948;5.316;2023-03-01T08:51:31;0.80;99.90
33139;DHT22;19501;50.948;5.316;2023-03-01T08:54:06;1.00;99.90
33139;DHT22;19501;50.948;5.316;2023-03-01T08:56:32;0.90;99.90
33139;DHT22;19501;50.948;5.316;2023-03-01T08:58:58;0.90;99.90
33139;DHT22;19501;50.948;5.316;2023-03-01T09:01:26;1.00;99.90
33139;DHT22;19501;50.948;5.316;2023-03-01T09:03:52;1.10;99.90
33139;DHT22;19501;50.948;5.316;2023-03-01T09:06:18;1.20;99.90
33139;DHT22;19501;50.948;5.316;2023-03-01T09:08:46;1.30;99.90
33139;DHT22;19501;50.948;5.316;2023-03-01T09:11:14;1.50;99.90
33139;DHT22;19501;50.948;5.316;2023-03-01T09:13:41;1.60;99.90
33139;DHT22;19501;50.948;5.316;2023-03-01T09:16:08;1.60;99.90
33139;DHT22;19501;50.948;5.316;2023-03-01T09:18:35;1.70;99.90
33139;DHT22;19501;50.948;5.316;2023-03-01T09:21:12;1.80;99.90
33139;DHT22;19501;50.948;5.316;2023-03-01T09:23:43;1.80;99.90
33139;DHT22;19501;50.948;5.316;2023-03-01T09:26:20;1.90;99.90
33139;DHT22;19501;50.948;5.316;2023-03-01T09:28:48;2.00;99.90
33139;DHT22;19501;50.948;5.316;2023-03-01T09:31:15;2.00;99.90
33139;DHT22;19501;50.948;5.316;2023-03-01T09:33:42;2.10;99.90
33139;DHT22;19501;50.948;5.316;2023-03-01T09:36:11;2.10;99.90
33139;DHT22;19501;50.948;5.316;2023-03-01T09:38:37;2.20;99.90
33139;DHT22;19501;50.948;5.316;2023-03-01T09:43:59;2.40;99.90
33139;DHT22;19501;50.948;5.316;2023-03-01T09:46:26;2.50;99.90
33139;DHT22;19501;50.948;5.316;2023-03-01T09:49:00;2.60;99.90
33139;DHT22;19501;50.948;5.316;2023-03-01T09:51:35;2.60;99.90
33139;DHT22;19501;50.948;5.316;2023-03-01T09:54:02;2.70;99.90
33139;DHT22;19501;50.948;5.316;2023-03-01T09:56:34;2.80;99.90
33139;DHT22;19501;50.948;5.316;2023-03-01T09:59:25;2.80;99.90
33139;DHT22;19501;50.948;5.316;2023-03-01T10:02:14;2.90;99.90
33139;DHT22;19501;50.948;5.316;2023-03-01T10:04:47;3.00;99.90
33139;DHT22;19501;50.948;5.316;2023-03-01T10:10:07;3.20;99.90
33139;DHT22;19501;50.948;5.316;2023-03-01T10:12:40;3.20;99.90
33139;DHT22;19501;50.948;5.316;2023-03-01T10:22:46;3.80;99.90
33139;DHT22;19501;50.948;5.316;2023-03-01T10:25:35;3.80;99.90
33139;DHT22;19501;50.948;5.316;2023-03-01T10:28:09;3.90;99.90
33139;DHT22;19501;50.948;5.316;2023-03-01T10:30:38;4.00;99.90
33139;DHT22;19501;50.948;5.316;2023-03-01T10:33:17;3.90;99.90
33139;DHT22;19501;50.948;5.316;2023-03-01T10:35:45;3.80;99.90
33139;DHT22;19501;50.948;5.316;2023-03-01T10:38:14;3.90;99.90
33139;DHT22;19501;50.948;5.316;2023-03-01T10:43:40;4.20;99.90
33139;DHT22;19501;50.948;5.316;2023-03-01T10:51:32;4.50;99.90
33139;DHT22;19501;50.948;5.316;2023-03-01T10:53:58;4.60;99.90
33139;DHT22;19501;50.948;5.316;2023-03-01T10:56:24;4.60;99.90
33139;DHT22;19501;50.948;5.316;2023-03-01T10:59:03;4.80;99.90
33139;DHT22;19501;50.948;5.316;2023-03-01T11:01:34;4.90;99.90
33139;DHT22;19501;50.948;5.316;2023-03-01T11:04:18;5.10;99.90
33139;DHT22;19501;50.948;5.316;2023-03-01T11:06:58;5.20;99.90
33139;DHT22;19501;50.948;5.316;2023-03-01T11:09:24;5.30;99.90
33139;DHT22;19501;50.948;5.316;2023-03-01T11:11:57;5.20;99.90
33139;DHT22;19501;50.948;5.316;2023-03-01T11:14:24;5.30;99.90
33139;DHT22;19501;50.948;5.316;2023-03-01T11:17:13;5.40;99.90
33139;DHT22;19501;50.948;5.316;2023-03-01T11:19:39;5.30;99.90
33139;DHT22;19501;50.948;5.316;2023-03-01T11:22:07;5.40;99.90
33139;DHT22;19501;50.948;5.316;2023-03-01T11:24:49;5.50;99.90
33139;DHT22;19501;50.948;5.316;2023-03-01T11:27:38;5.50;99.90
33139;DHT22;19501;50.948;5.316;2023-03-01T11:30:12;5.80;99.90
33139;DHT22;19501;50.948;5.316;2023-03-01T11:32:48;6.10;99.90
33139;DHT22;19501;50.948;5.316;2023-03-01T11:35:24;6.30;99.90
33139;DHT22;19501;50.948;5.316;2023-03-01T11:43:57;6.70;99.90
33139;DHT22;19501;50.948;5.316;2023-03-01T11:52:13;8.60;97.10
33139;DHT22;19501;50.948;5.316;2023-03-01T11:54:50;9.20;96.70
33139;DHT22;19501;50.948;5.316;2023-03-01T12:03:06;11.10;93.30
33139;DHT22;19501;50.948;5.316;2023-03-01T12:08:30;11.80;91.40
33139;DHT22;19501;50.948;5.316;2023-03-01T12:19:30;11.80;88.50
33139;DHT22;19501;50.948;5.316;2023-03-01T12:27:21;12.20;86.50
33139;DHT22;19501;50.948;5.316;2023-03-01T12:38:49;14.20;81.40
33139;DHT22;19501;50.948;5.316;2023-03-01T12:43:58;14.80;79.70
33139;DHT22;19501;50.948;5.316;2023-03-01T12:49:15;13.90;77.60
33139;DHT22;19501;50.948;5.316;2023-03-01T12:54:36;13.10;79.80
33139;DHT22;19501;50.948;5.316;2023-03-01T13:26:15;13.10;78.60
33139;DHT22;19501;50.948;5.316;2023-03-01T13:33:59;14.10;75.30
33139;DHT22;19501;50.948;5.316;2023-03-01T13:44:34;13.30;77.20
33139;DHT22;19501;50.948;5.316;2023-03-01T13:47:14;12.90;76.20
33139;DHT22;19501;50.948;5.316;2023-03-01T13:49:47;12.50;77.30
33139;DHT22;19501;50.948;5.316;2023-03-01T13:55:00;13.30;77.10
33139;DHT22;19501;50.948;5.316;2023-03-01T13:57:37;13.50;76.30
33139;DHT22;19501;50.948;5.316;2023-03-01T14:02:40;13.60;76.60
33139;DHT22;19501;50.948;5.316;2023-03-01T14:05:09;13.70;75.90
33139;DHT22;19501;50.948;5.316;2023-03-01T14:07:36;13.90;74.00
33139;DHT22;19501;50.948;5.316;2023-03-01T14:10:07;13.40;73.90
33139;DHT22;19501;50.948;5.316;2023-03-01T14:20:22;13.30;74.60
33139;DHT22;19501;50.948;5.316;2023-03-01T14:22:52;14.00;74.50
33139;DHT22;19501;50.948;5.316;2023-03-01T14:25:33;13.80;73.90
33139;DHT22;19501;50.948;5.316;2023-03-01T14:28:42;14.20;74.70
33139;DHT22;19501;50.948;5.316;2023-03-01T14:31:00;13.50;75.40
33139;DHT22;19501;50.948;5.316;2023-03-01T14:35:56;13.10;76.60
33139;DHT22;19501;50.948;5.316;2023-03-01T14:38:27;12.60;76.90
33139;DHT22;19501;50.948;5.316;2023-03-01T14:40:57;12.40;78.00
33139;DHT22;19501;50.948;5.316;2023-03-01T14:43:24;12.40;79.00
33139;DHT22;19501;50.948;5.316;2023-03-01T14:45:53;11.90;79.00
33139;DHT22;19501;50.948;5.316;2023-03-01T14:48:19;11.60;79.20
33139;DHT22;19501;50.948;5.316;2023-03-01T14:50:45;11.20;80.10
33139;DHT22;19501;50.948;5.316;2023-03-01T14:53:23;11.70;80.50
33139;DHT22;19501;50.948;5.316;2023-03-01T14:55:55;11.70;79.90
33139;DHT22;19501;50.948;5.316;2023-03-01T14:58:24;11.30;79.60
33139;DHT22;19501;50.948;5.316;2023-03-01T15:01:13;10.90;79.80
33139;DHT22;19501;50.948;5.316;2023-03-01T15:03:45;10.30;82.10
33139;DHT22;19501;50.948;5.316;2023-03-01T15:06:15;10.40;81.90
33139;DHT22;19501;50.948;5.316;2023-03-01T15:08:46;10.30;81.60
33139;DHT22;19501;50.948;5.316;2023-03-01T15:11:28;10.40;81.60
33139;DHT22;19501;50.948;5.316;2023-03-01T15:13:54;10.40;81.40
33139;DHT22;19501;50.948;5.316;2023-03-01T15:16:24;10.30;80.70
33139;DHT22;19501;50.948;5.316;2023-03-01T15:18:55;9.90;81.50
33139;DHT22;19501;50.948;5.316;2023-03-01T15:21:27;9.70;82.00
33139;DHT22;19501;50.948;5.316;2023-03-01T15:23:55;9.80;82.60
33139;DHT22;19501;50.948;5.316;2023-03-01T15:26:31;10.00;82.50
33139;DHT22;19501;50.948;5.316;2023-03-01T15:28:58;9.90;81.90
33139;DHT22;19501;50.948;5.316;2023-03-01T15:31:31;9.80;80.40
33139;DHT22;19501;50.948;5.316;2023-03-01T15:34:22;9.70;82.00
33139;DHT22;19501;50.948;5.316;2023-03-01T15:36:50;9.70;82.00
33139;DHT22;19501;50.948;5.316;2023-03-01T15:42:05;9.50;82.30
33139;DHT22;19501;50.948;5.316;2023-03-01T15:44:33;9.70;82.20
33139;DHT22;19501;50.948;5.316;2023-03-01T15:46:59;9.70;81.60
33139;DHT22;19501;50.948;5.316;2023-03-01T15:49:39;9.50;82.20
33139;DHT22;19501;50.948;5.316;2023-03-01T15:52:27;9.50;82.60
33139;DHT22;19501;50.948;5.316;2023-03-01T15:55:02;9.40;82.10
33139;DHT22;19501;50.948;5.316;2023-03-01T15:57:28;9.40;82.30
33139;DHT22;19501;50.948;5.316;2023-03-01T15:59:54;9.20;82.50
33139;DHT22;19501;50.948;5.316;2023-03-01T16:02:22;9.00;82.70
33139;DHT22;19501;50.948;5.316;2023-03-01T16:04:48;9.00;82.00
33139;DHT22;19501;50.948;5.316;2023-03-01T16:07:16;9.00;82.20
33139;DHT22;19501;50.948;5.316;2023-03-01T16:09:42;9.00;83.10
33139;DHT22;19501;50.948;5.316;2023-03-01T16:12:15;9.00;83.20
33139;DHT22;19501;50.948;5.316;2023-03-01T16:14:42;9.00;83.50
33139;DHT22;19501;50.948;5.316;2023-03-01T16:17:08;9.10;83.90
33139;DHT22;19501;50.948;5.316;2023-03-01T16:19:36;9.10;83.10
33139;DHT22;19501;50.948;5.316;2023-03-01T16:22:03;8.90;83.20
33139;DHT22;19501;50.948;5.316;2023-03-01T16:24:28;8.70;83.50
33139;DHT22;19501;50.948;5.316;2023-03-01T16:26:54;8.60;82.80
33139;DHT22;19501;50.948;5.316;2023-03-01T16:29:20;8.50;83.50
33139;DHT22;19501;50.948;5.316;2023-03-01T16:31:45;8.40;84.30
33139;DHT22;19501;50.948;5.316;2023-03-01T16:34:12;8.30;84.90
33139;DHT22;19501;50.948;5.316;2023-03-01T16:36:38;8.10;85.00
33139;DHT22;19501;50.948;5.316;2023-03-01T16:39:04;8.00;85.50
33139;DHT22;19501;50.948;5.316;2023-03-01T16:41:30;8.00;85.30
33139;DHT22;19501;50.948;5.316;2023-03-01T16:43:56;7.90;85.60
33139;DHT22;19501;50.948;5.316;2023-03-01T16:46:26;7.70;86.00
33139;DHT22;19501;50.948;5.316;2023-03-01T16:48:53;7.60;86.70
33139;DHT22;19501;50.948;5.316;2023-03-01T16:51:20;7.50;87.30
33139;DHT22;19501;50.948;5.316;2023-03-01T16:53:46;7.40;87.10
33139;DHT22;19501;50.948;5.316;2023-03-01T16:56:12;7.30;88.00
33139;DHT22;19501;50.948;5.316;2023-03-01T16:58:39;7.20;87.80
33139;DHT22;19501;50.948;5.316;2023-03-01T17:01:10;7.20;88.00
33139;DHT22;19501;50.948;5.316;2023-03-01T17:03:37;7.20;88.40
33139;DHT22;19501;50.948;5.316;2023-03-01T17:06:05;7.20;88.60
33139;DHT22;19501;50.948;5.316;2023-03-01T17:08:31;7.10;88.70
33139;DHT22;19501;50.948;5.316;2023-03-01T17:11:09;6.90;89.10
33139;DHT22;19501;50.948;5.316;2023-03-01T17:13:36;6.80;89.60
33139;DHT22;19501;50.948;5.316;2023-03-01T17:16:04;6.80;90.00
33139;DHT22;19501;50.948;5.316;2023-03-01T17:18:31;6.80;89.90
33139;DHT22;19501;50.948;5.316;2023-03-01T17:20:57;6.80;89.90
33139;DHT22;19501;50.948;5.316;2023-03-01T17:23:22;6.70;90.30
33139;DHT22;19501;50.948;5.316;2023-03-01T17:25:48;6.60;90.40
33139;DHT22;19501;50.948;5.316;2023-03-01T17:28:14;6.50;90.40
33139;DHT22;19501;50.948;5.316;2023-03-01T17:30:45;6.40;90.60
33139;DHT22;19501;50.948;5.316;2023-03-01T17:33:13;6.50;90.60
33139;DHT22;19501;50.948;5.316;2023-03-01T17:35:38;6.50;90.50
33139;DHT22;19501;50.948;5.316;2023-03-01T17:38:05;6.40;90.70
33139;DHT22;19501;50.948;5.316;2023-03-01T17:40:31;6.40;90.80
33139;DHT22;19501;50.948;5.316;2023-03-01T17:42:57;6.40;91.00
33139;DHT22;19501;50.948;5.316;2023-03-01T17:45:23;6.20;91.00
33139;DHT22;19501;50.948;5.316;2023-03-01T17:47:48;6.30;91.10
33139;DHT22;19501;50.948;5.316;2023-03-01T17:50:14;6.20;91.30
33139;DHT22;19501;50.948;5.316;2023-03-01T17:52:40;6.30;91.30
33139;DHT22;19501;50.948;5.316;2023-03-01T17:55:06;6.20;91.30
33139;DHT22;19501;50.948;5.316;2023-03-01T17:57:32;6.20;91.40
33139;DHT22;19501;50.948;5.316;2023-03-01T17:59:58;6.10;91.60
33139;DHT22;19501;50.948;5.316;2023-03-01T18:02:24;6.00;91.60
33139;DHT22;19501;50.948;5.316;2023-03-01T18:04:51;6.10;91.70
33139;DHT22;19501;50.948;5.316;2023-03-01T18:07:18;6.10;91.70
33139;DHT22;19501;50.948;5.316;2023-03-01T18:09:44;6.10;91.60
33139;DHT22;19501;50.948;5.316;2023-03-01T18:12:09;6.00;91.70
33139;DHT22;19501;50.948;5.316;2023-03-01T18:14:38;6.00;92.20
33139;DHT22;19501;50.948;5.316;2023-03-01T18:17:04;6.00;92.20